Terminal Aerodrome Forecast
Issued by NWS Cleveland, OH

Home | Current Version | Previous Version | Graphics & Text | Print | Product List | Glossary Off
Versions: 1 2 3 4 5 6 7 8 9 10 11 12 13 14 15 16 17 18

000
FTUS41 KCLE 222320
TAFMFD
TAF
KMFD 222320Z 2300/2324 18008KT P6SM OVC015
     FM230400 20010KT 6SM BR OVC010
     FM230600 20010KT 4SM BR OVC008
      TEMPO 2310/2314 2SM BR OVC008
     FM231600 22010KT 6SM HZ OVC012
     FM232100 25008KT P6SM OVC025=

USA.gov is the U.S. government's official web portal to all federal, state and local government web resources and services.